Time,TemperatureF,DewpointF,PressureIn,WindDirection,WindDirectionDegrees,WindSpeedMPH,WindSpeedGustMPH,Humidity,HourlyPrecipIn,Conditions,Clouds,dailyrainin,SoftwareType,DateUTC
2013-08-25 00:01:00,79.3,69.5,29.99,NE,45,0.0,0.0,72,0.00,,---,0.00,VWS V13.01,2013-08-25 04:01:00,
2013-08-25 00:02:00,79.5,69.7,29.98,NE,45,0.0,0.0,72,0.00,,---,0.00,VWS V13.01,2013-08-25 04:02:00,
2013-08-25 00:07:00,79.5,69.7,29.98,NE,45,0.0,0.0,72,0.00,,---,0.00,VWS V13.01,2013-08-25 04:07:00,
2013-08-25 00:12:00,79.5,69.7,29.98,NE,45,0.0,0.0,72,0.00,,---,0.00,VWS V13.01,2013-08-25 04:12:00,
2013-08-25 00:17:00,79.5,69.7,29.97,NE,45,0.0,0.0,72,0.00,,---,0.00,VWS V13.01,2013-08-25 04:17:00,
2013-08-25 00:22:00,79.2,69.4,29.97,NE,45,0.0,0.0,72,0.00,,---,0.00,VWS V13.01,2013-08-25 04:22:00,
2013-08-25 00:27:00,79.5,69.7,29.96,NE,45,0.0,0.0,72,0.00,,---,0.00,VWS V13.01,2013-08-25 04:27:00,
2013-08-25 00:32:00,79.5,69.7,29.96,NE,45,0.0,0.0,72,0.00,,---,0.00,VWS V13.01,2013-08-25 04:32:00,
2013-08-25 00:37:00,79.3,69.5,29.96,NE,45,0.0,0.0,72,0.00,,---,0.00,VWS V13.01,2013-08-25 04:37:00,
2013-08-25 00:42:00,79.3,69.9,29.97,NE,45,0.0,0.0,73,0.00,,---,0.00,VWS V13.01,2013-08-25 04:42:00,
2013-08-25 00:47:00,79.2,69.8,29.96,NE,45,0.0,0.0,73,0.00,,---,0.00,VWS V13.01,2013-08-25 04:47:00,
2013-08-25 00:52:00,79.3,69.9,29.97,NE,45,0.0,0.0,73,0.00,,---,0.00,VWS V13.01,2013-08-25 04:52:00,
2013-08-25 00:57:00,79.2,69.8,29.97,NE,45,0.0,0.0,73,0.00,,---,0.00,VWS V13.01,2013-08-25 04:57:00,
2013-08-25 01:02:00,79.2,69.8,29.97,NE,45,0.0,0.0,73,0.00,,---,0.00,VWS V13.01,2013-08-25 05:02:00,
2013-08-25 01:07:00,79.2,69.8,29.97,NE,45,0.0,0.0,73,0.00,,---,0.00,VWS V13.01,2013-08-25 05:07:00,
2013-08-25 01:12:00,79.3,70.3,29.97,NE,45,0.0,0.0,74,0.00,,---,0.00,VWS V13.01,2013-08-25 05:12:00,
2013-08-25 01:17:00,79.3,70.3,29.96,NE,45,0.0,0.0,74,0.00,,---,0.00,VWS V13.01,2013-08-25 05:17:00,
2013-08-25 01:22:00,79.5,70.5,29.95,NE,45,0.0,0.0,74,0.00,,---,0.00,VWS V13.01,2013-08-25 05:22:00,
2013-08-25 01:27:00,79.3,70.3,29.95,NE,45,0.0,0.0,74,0.00,,---,0.00,VWS V13.01,2013-08-25 05:27:00,
2013-08-25 01:32:00,79.0,70.0,29.94,ENE,68,0.0,2.0,74,0.00,,---,0.00,VWS V13.01,2013-08-25 05:32:00,
2013-08-25 01:37:00,79.0,70.0,29.94,ENE,68,0.0,2.0,74,0.00,,---,0.00,VWS V13.01,2013-08-25 05:37:00,
2013-08-25 01:42:00,79.0,70.0,29.94,ENE,68,0.0,2.0,74,0.00,,---,0.00,VWS V13.01,2013-08-25 05:42:00,
2013-08-25 01:47:00,79.2,71.3,29.94,ENE,68,0.0,2.0,77,0.00,,---,0.00,VWS V13.01,2013-08-25 05:47:00,
2013-08-25 01:52:00,79.3,71.5,29.95,SW,225,0.0,2.0,77,0.00,,---,0.00,VWS V13.01,2013-08-25 05:52:00,
2013-08-25 01:57:00,79.5,71.7,29.95,SW,225,0.0,2.0,77,0.00,,---,0.00,VWS V13.01,2013-08-25 05:57:00,
2013-08-25 02:02:00,79.5,71.7,29.95,SW,225,0.0,0.0,77,0.00,,---,0.00,VWS V13.01,2013-08-25 06:02:00,
2013-08-25 02:07:00,79.5,71.7,29.95,SW,225,0.0,0.0,77,0.00,,---,0.00,VWS V13.01,2013-08-25 06:07:00,
2013-08-25 02:12:00,79.5,71.7,29.95,SW,225,0.0,0.0,77,0.00,,---,0.00,VWS V13.01,2013-08-25 06:12:00,
2013-08-25 02:17:00,79.5,71.7,29.95,SW,225,0.0,0.0,77,0.00,,---,0.00,VWS V13.01,2013-08-25 06:17:00,
2013-08-25 02:22:00,79.5,71.7,29.95,SW,225,0.0,0.0,77,0.00,,---,0.00,VWS V13.01,2013-08-25 06:22:00,
2013-08-25 02:27:00,79.3,71.5,29.95,SW,225,0.0,0.0,77,0.00,,---,0.00,VWS V13.01,2013-08-25 06:27:00,
2013-08-25 02:32:00,79.3,71.1,29.95,SW,225,0.0,0.0,76,0.00,,---,0.00,VWS V13.01,2013-08-25 06:32:00,
2013-08-25 02:37:00,79.5,71.3,29.94,SW,225,0.0,0.0,76,0.00,,---,0.00,VWS V13.01,2013-08-25 06:37:00,
2013-08-25 02:42:00,79.3,71.1,29.94,SW,225,0.0,0.0,76,0.00,,---,0.00,VWS V13.01,2013-08-25 06:42:00,
2013-08-25 02:47:00,79.2,70.9,29.94,SW,225,0.0,0.0,76,0.00,,---,0.00,VWS V13.01,2013-08-25 06:47:00,
2013-08-25 02:52:00,79.3,71.1,29.94,SW,225,0.0,0.0,76,0.00,,---,0.00,VWS V13.01,2013-08-25 06:52:00,
2013-08-25 02:57:00,79.2,70.9,29.94,SW,225,0.0,0.0,76,0.00,,---,0.00,VWS V13.01,2013-08-25 06:57:00,
2013-08-25 03:02:00,79.2,71.3,29.94,SW,225,0.0,0.0,77,0.00,,---,0.00,VWS V13.01,2013-08-25 07:02:00,
2013-08-25 03:07:00,79.2,71.3,29.94,SW,225,0.0,0.0,77,0.00,,---,0.00,VWS V13.01,2013-08-25 07:07:00,
2013-08-25 03:12:00,79.2,71.3,29.95,SW,225,0.0,0.0,77,0.00,,---,0.00,VWS V13.01,2013-08-25 07:12:00,
2013-08-25 03:17:00,79.2,71.3,29.94,SW,225,0.0,0.0,77,0.00,,---,0.00,VWS V13.01,2013-08-25 07:17:00,
2013-08-25 03:22:00,79.0,71.2,29.94,SW,225,0.0,0.0,77,0.00,,---,0.00,VWS V13.01,2013-08-25 07:22:00,
2013-08-25 03:27:00,79.0,71.2,29.95,SW,225,0.0,0.0,77,0.00,,---,0.00,VWS V13.01,2013-08-25 07:27:00,
2013-08-25 03:32:00,79.0,71.2,29.95,SW,225,0.0,0.0,77,0.00,,---,0.00,VWS V13.01,2013-08-25 07:32:00,
2013-08-25 03:37:00,79.0,71.2,29.95,SW,225,0.0,0.0,77,0.00,,---,0.00,VWS V13.01,2013-08-25 07:37:00,
2013-08-25 03:42:00,79.0,71.2,29.94,SW,225,0.0,0.0,77,0.00,,---,0.00,VWS V13.01,2013-08-25 07:42:00,
2013-08-25 03:47:00,79.0,71.2,29.94,SW,225,0.0,0.0,77,0.00,,---,0.00,VWS V13.01,2013-08-25 07:47:00,
2013-08-25 03:52:00,79.0,71.2,29.95,SW,225,0.0,0.0,77,0.00,,---,0.00,VWS V13.01,2013-08-25 07:52:00,
2013-08-25 03:57:00,79.0,71.5,29.95,SW,225,0.0,0.0,78,0.00,,---,0.00,VWS V13.01,2013-08-25 07:57:00,
2013-08-25 04:02:00,79.0,71.5,29.95,SW,225,0.0,0.0,78,0.00,,---,0.00,VWS V13.01,2013-08-25 08:02:00,
2013-08-25 04:07:00,79.0,71.5,29.95,SW,225,0.0,0.0,78,0.00,,---,0.00,VWS V13.01,2013-08-25 08:07:00,
2013-08-25 04:12:00,78.8,71.7,29.95,SW,225,0.0,0.0,79,0.00,,---,0.00,VWS V13.01,2013-08-25 08:12:00,
2013-08-25 04:17:00,78.6,71.6,29.95,SW,225,0.0,0.0,79,0.00,,---,0.00,VWS V13.01,2013-08-25 08:17:00,
2013-08-25 04:22:00,78.6,71.6,29.95,WNW,292,0.0,0.0,79,0.00,,---,0.00,VWS V13.01,2013-08-25 08:22:00,
2013-08-25 04:27:00,78.8,71.7,29.95,WNW,292,0.0,0.0,79,0.00,,---,0.00,VWS V13.01,2013-08-25 08:27:00,
2013-08-25 04:32:00,79.0,71.9,29.95,WNW,292,0.0,0.0,79,0.00,,---,0.00,VWS V13.01,2013-08-25 08:32:00,
2013-08-25 04:37:00,78.8,71.7,29.95,WNW,292,0.0,0.0,79,0.00,,---,0.00,VWS V13.01,2013-08-25 08:37:00,
2013-08-25 04:42:00,79.0,71.9,29.95,WNW,292,0.0,0.0,79,0.00,,---,0.00,VWS V13.01,2013-08-25 08:42:00,
2013-08-25 04:47:00,79.0,71.9,29.95,WNW,292,0.0,0.0,79,0.00,,---,0.00,VWS V13.01,2013-08-25 08:47:00,
2013-08-25 04:52:00,79.0,71.9,29.95,WNW,292,0.0,0.0,79,0.00,,---,0.00,VWS V13.01,2013-08-25 08:52:00,
2013-08-25 04:57:00,78.6,71.6,29.95,NNW,338,0.0,0.0,79,0.00,,---,0.00,VWS V13.01,2013-08-25 08:57:00,
2013-08-25 05:02:00,78.6,71.6,29.95,NNW,338,0.0,0.0,79,0.00,,---,0.00,VWS V13.01,2013-08-25 09:02:00,
2013-08-25 05:07:00,78.4,72.5,29.96,NNW,338,0.0,0.0,82,0.00,,---,0.00,VWS V13.01,2013-08-25 09:07:00,
2013-08-25 05:12:00,78.6,72.7,29.96,NNW,338,0.0,0.0,82,0.00,,---,0.00,VWS V13.01,2013-08-25 09:12:00,
2013-08-25 05:16:00,78.4,72.5,29.96,NNW,338,0.0,0.0,82,0.00,,---,0.00,VWS V13.01,2013-08-25 09:16:00,
2013-08-25 05:21:00,78.4,72.5,29.96,NNW,338,0.0,0.0,82,0.00,,---,0.00,VWS V13.01,2013-08-25 09:21:00,
2013-08-25 05:26:00,78.4,72.5,29.96,NNW,338,0.0,0.0,82,0.00,,---,0.00,VWS V13.01,2013-08-25 09:26:00,
2013-08-25 05:31:00,78.4,72.5,29.96,NNW,338,0.0,0.0,82,0.00,,---,0.00,VWS V13.01,2013-08-25 09:31:00,
2013-08-25 05:36:00,78.3,72.3,29.97,NNW,338,0.0,0.0,82,0.00,,---,0.00,VWS V13.01,2013-08-25 09:36:00,
2013-08-25 05:41:00,78.3,72.3,29.97,NNW,338,0.0,0.0,82,0.00,,---,0.00,VWS V13.01,2013-08-25 09:41:00,
2013-08-25 05:46:00,78.4,72.8,29.98,NE,45,0.0,0.0,83,0.00,,---,0.00,VWS V13.01,2013-08-25 09:46:00,
2013-08-25 05:51:00,78.4,72.8,29.98,NE,45,0.0,0.0,83,0.00,,---,0.00,VWS V13.01,2013-08-25 09:51:00,
2013-08-25 05:56:00,78.4,72.8,29.98,NE,45,0.0,0.0,83,0.00,,---,0.00,VWS V13.01,2013-08-25 09:56:00,
2013-08-25 06:01:00,78.6,73.0,29.98,NE,45,0.0,0.0,83,0.00,,---,0.00,VWS V13.01,2013-08-25 10:01:00,
2013-08-25 06:06:00,78.6,73.0,29.98,NE,45,0.0,0.0,83,0.00,,---,0.00,VWS V13.01,2013-08-25 10:06:00,
2013-08-25 06:11:00,78.4,72.8,29.98,NE,45,0.0,0.0,83,0.00,,---,0.00,VWS V13.01,2013-08-25 10:11:00,
2013-08-25 06:16:00,78.4,72.8,29.98,NE,45,0.0,0.0,83,0.00,,---,0.00,VWS V13.01,2013-08-25 10:16:00,
2013-08-25 06:21:00,78.4,72.8,29.98,NE,45,0.0,0.0,83,0.00,,---,0.00,VWS V13.01,2013-08-25 10:21:00,
2013-08-25 06:26:00,78.4,72.8,29.98,NE,45,0.0,0.0,83,0.00,,---,0.00,VWS V13.01,2013-08-25 10:26:00,
2013-08-25 06:31:00,78.3,72.7,29.98,NE,45,0.0,0.0,83,0.00,,---,0.00,VWS V13.01,2013-08-25 10:31:00,
2013-08-25 06:36:00,78.3,72.7,29.99,NE,45,0.0,0.0,83,0.00,,---,0.00,VWS V13.01,2013-08-25 10:36:00,
2013-08-25 06:41:00,78.3,72.7,29.99,NE,45,0.0,0.0,83,0.00,,---,0.00,VWS V13.01,2013-08-25 10:41:00,
2013-08-25 06:46:00,78.1,72.5,29.99,NE,45,0.0,0.0,83,0.00,,---,0.00,VWS V13.01,2013-08-25 10:46:00,
2013-08-25 06:51:00,78.1,72.5,29.99,NE,45,0.0,0.0,83,0.00,,---,0.00,VWS V13.01,2013-08-25 10:51:00,
2013-08-25 06:56:00,78.3,72.7,29.99,NE,45,0.0,0.0,83,0.00,,---,0.00,VWS V13.01,2013-08-25 10:56:00,
2013-08-25 07:01:00,78.3,72.7,29.99,NE,45,0.0,0.0,83,0.00,,---,0.00,VWS V13.01,2013-08-25 11:01:00,
2013-08-25 07:06:00,78.1,72.5,30.00,NE,45,0.0,0.0,83,0.00,,---,0.00,VWS V13.01,2013-08-25 11:06:00,
2013-08-25 07:11:00,78.1,72.5,30.00,ENE,68,0.0,2.5,83,0.00,,---,0.00,VWS V13.01,2013-08-25 11:11:00,
2013-08-25 07:16:00,78.1,72.5,29.99,ENE,68,0.0,2.5,83,0.00,,---,0.00,VWS V13.01,2013-08-25 11:16:00,
2013-08-25 07:21:00,78.3,72.7,29.99,ENE,68,0.0,2.5,83,0.00,,---,0.00,VWS V13.01,2013-08-25 11:21:00,
2013-08-25 07:26:00,78.1,72.5,30.00,ENE,68,0.0,2.5,83,0.00,,---,0.00,VWS V13.01,2013-08-25 11:26:00,
2013-08-25 07:31:00,78.3,72.7,30.00,ENE,68,0.0,2.5,83,0.00,,---,0.00,VWS V13.01,2013-08-25 11:31:00,
2013-08-25 07:36:00,78.3,72.7,30.00,ENE,68,0.0,2.5,83,0.00,,---,0.00,VWS V13.01,2013-08-25 11:36:00,
2013-08-25 07:41:00,78.4,72.8,30.01,ENE,68,0.0,2.5,83,0.00,,---,0.00,VWS V13.01,2013-08-25 11:41:00,
2013-08-25 07:46:00,78.4,72.8,30.01,ENE,68,0.0,2.5,83,0.00,,---,0.00,VWS V13.01,2013-08-25 11:46:00,
2013-08-25 07:51:00,78.4,72.8,30.01,ENE,68,0.0,2.5,83,0.00,,---,0.00,VWS V13.01,2013-08-25 11:51:00,
2013-08-25 07:56:00,78.4,72.8,30.01,ENE,68,0.0,2.5,83,0.00,,---,0.00,VWS V13.01,2013-08-25 11:56:00,
2013-08-25 08:01:00,79.0,73.0,30.02,WNW,292,0.0,0.0,82,0.00,,---,0.00,VWS V13.01,2013-08-25 12:01:00,
2013-08-25 08:06:00,79.0,73.0,30.02,WNW,292,0.0,0.0,82,0.00,,---,0.00,VWS V13.01,2013-08-25 12:06:00,
2013-08-25 08:11:00,79.2,73.2,30.02,WNW,292,0.0,0.0,82,0.00,,---,0.00,VWS V13.01,2013-08-25 12:11:00,
2013-08-25 08:16:00,79.2,73.2,30.02,WNW,292,0.9,4.7,82,0.00,,---,0.00,VWS V13.01,2013-08-25 12:16:00,
2013-08-25 08:21:00,79.2,72.8,30.02,NW,315,0.0,4.7,81,0.00,,---,0.00,VWS V13.01,2013-08-25 12:21:00,
2013-08-25 08:26:00,79.2,72.8,30.01,WNW,292,0.0,4.7,81,0.00,,---,0.00,VWS V13.01,2013-08-25 12:26:00,
2013-08-25 08:31:00,79.2,72.8,30.02,West,270,0.0,5.6,81,0.00,,---,0.00,VWS V13.01,2013-08-25 12:31:00,
2013-08-25 08:36:00,79.2,72.5,30.02,NW,315,0.0,5.6,80,0.00,,---,0.00,VWS V13.01,2013-08-25 12:36:00,
2013-08-25 08:41:00,79.2,72.5,30.02,NW,315,0.0,5.6,80,0.00,,---,0.00,VWS V13.01,2013-08-25 12:41:00,
2013-08-25 08:46:00,79.2,72.5,30.02,NW,315,2.5,5.6,80,0.00,,---,0.00,VWS V13.01,2013-08-25 12:46:00,
2013-08-25 08:51:00,79.2,72.5,30.02,NNW,338,0.0,5.6,80,0.00,,---,0.00,VWS V13.01,2013-08-25 12:51:00,
2013-08-25 08:56:00,79.2,71.7,30.03,NW,315,0.0,5.6,78,0.00,,---,0.00,VWS V13.01,2013-08-25 12:56:00,
2013-08-25 09:01:00,79.0,71.5,30.03,WNW,292,0.0,4.9,78,0.00,,---,0.00,VWS V13.01,2013-08-25 13:01:00,
2013-08-25 09:06:00,78.8,71.0,30.02,WNW,292,0.0,4.9,77,0.00,,---,0.00,VWS V13.01,2013-08-25 13:06:00,
2013-08-25 09:11:00,78.8,71.0,30.03,WNW,292,0.0,4.9,77,0.02,,---,0.02,VWS V13.01,2013-08-25 13:11:00,
2013-08-25 09:16:00,79.0,71.2,30.03,NW,315,3.1,4.9,77,0.02,,---,0.02,VWS V13.01,2013-08-25 13:16:00,
2013-08-25 09:21:00,78.8,71.0,30.04,NNW,338,3.8,4.9,77,0.02,,---,0.02,VWS V13.01,2013-08-25 13:21:00,
2013-08-25 09:26:00,78.6,70.8,30.04,NNW,338,3.1,5.6,77,0.04,,---,0.04,VWS V13.01,2013-08-25 13:26:00,
2013-08-25 09:31:00,79.0,71.2,30.04,NW,315,0.0,5.6,77,0.04,,---,0.04,VWS V13.01,2013-08-25 13:31:00,
2013-08-25 09:36:00,79.2,71.3,30.04,NNW,338,1.8,5.6,77,0.04,,---,0.04,VWS V13.01,2013-08-25 13:36:00,
2013-08-25 09:41:00,79.3,71.5,30.04,NNW,338,0.0,5.6,77,0.04,,---,0.04,VWS V13.01,2013-08-25 13:41:00,
2013-08-25 09:46:00,79.5,71.7,30.04,WNW,292,1.6,6.3,77,0.04,,---,0.04,VWS V13.01,2013-08-25 13:46:00,
2013-08-25 09:51:00,79.7,71.9,30.04,WNW,292,0.0,6.3,77,0.04,,---,0.04,VWS V13.01,2013-08-25 13:51:00,
2013-08-25 09:56:00,79.9,72.0,30.05,NW,315,0.7,6.3,77,0.04,,---,0.04,VWS V13.01,2013-08-25 13:56:00,
2013-08-25 10:01:00,80.1,72.2,30.05,WNW,292,0.0,6.0,77,0.04,,---,0.04,VWS V13.01,2013-08-25 14:01:00,
2013-08-25 10:06:00,80.1,71.8,30.06,WNW,292,0.0,6.0,76,0.04,,---,0.04,VWS V13.01,2013-08-25 14:06:00,
2013-08-25 10:11:00,79.9,71.6,30.06,North,0,0.0,6.0,76,0.02,,---,0.04,VWS V13.01,2013-08-25 14:11:00,
2013-08-25 10:16:00,79.5,71.3,30.06,NE,45,0.0,6.0,76,0.02,,---,0.04,VWS V13.01,2013-08-25 14:16:00,
2013-08-25 10:21:00,79.5,71.3,30.07,NE,45,0.0,6.0,76,0.00,,---,0.04,VWS V13.01,2013-08-25 14:21:00,
2013-08-25 10:26:00,79.2,70.9,30.06,NNE,22,0.0,6.0,76,0.00,,---,0.04,VWS V13.01,2013-08-25 14:26:00,
2013-08-25 10:31:00,78.6,70.4,30.06,NNW,338,0.0,6.0,76,0.00,,---,0.04,VWS V13.01,2013-08-25 14:31:00,
2013-08-25 10:36:00,78.3,70.1,30.06,NNW,338,0.0,6.0,76,0.02,,---,0.06,VWS V13.01,2013-08-25 14:36:00,
2013-08-25 10:41:00,77.9,69.7,30.06,NNE,22,0.0,6.0,76,0.02,,---,0.06,VWS V13.01,2013-08-25 14:41:00,
2013-08-25 10:46:00,77.9,69.7,30.06,NNE,22,0.0,6.0,76,0.02,,---,0.06,VWS V13.01,2013-08-25 14:46:00,
2013-08-25 10:51:00,77.9,69.7,30.05,NNE,22,0.0,6.0,76,0.02,,---,0.06,VWS V13.01,2013-08-25 14:51:00,
2013-08-25 10:56:00,78.1,69.9,30.05,NNE,22,0.0,6.0,76,0.02,,---,0.06,VWS V13.01,2013-08-25 14:56:00,
2013-08-25 11:01:00,78.3,70.1,30.05,NNE,22,0.0,0.0,76,0.02,,---,0.06,VWS V13.01,2013-08-25 15:01:00,
2013-08-25 11:06:00,78.6,70.4,30.06,NNE,22,0.0,0.0,76,0.04,,---,0.08,VWS V13.01,2013-08-25 15:06:00,
2013-08-25 11:11:00,79.0,70.8,30.05,NNE,22,0.0,0.0,76,0.04,,---,0.08,VWS V13.01,2013-08-25 15:11:00,
2013-08-25 11:16:00,79.0,70.8,30.06,NNE,22,0.0,0.0,76,0.04,,---,0.08,VWS V13.01,2013-08-25 15:16:00,
2013-08-25 11:21:00,79.2,70.9,30.06,NNE,22,0.0,0.0,76,0.04,,---,0.08,VWS V13.01,2013-08-25 15:21:00,
2013-08-25 11:26:00,79.5,72.8,30.06,NNE,22,0.0,0.0,80,0.04,,---,0.08,VWS V13.01,2013-08-25 15:26:00,
2013-08-25 11:31:00,79.5,72.8,30.06,NE,45,0.0,0.0,80,0.04,,---,0.08,VWS V13.01,2013-08-25 15:31:00,
2013-08-25 11:36:00,79.7,73.0,30.06,NE,45,0.0,0.0,80,0.02,,---,0.08,VWS V13.01,2013-08-25 15:36:00,
2013-08-25 11:41:00,79.7,73.0,30.06,NE,45,1.3,1.3,80,0.02,,---,0.08,VWS V13.01,2013-08-25 15:41:00,
2013-08-25 11:46:00,80.1,73.3,30.05,NE,45,0.0,1.3,80,0.02,,---,0.08,VWS V13.01,2013-08-25 15:46:00,
2013-08-25 11:51:00,80.1,73.0,30.05,ENE,68,0.0,1.3,79,0.02,,---,0.08,VWS V13.01,2013-08-25 15:51:00,
2013-08-25 11:56:00,80.4,73.3,30.05,NE,45,0.0,2.9,79,0.02,,---,0.08,VWS V13.01,2013-08-25 15:56:00,
2013-08-25 12:01:00,80.8,73.7,30.05,NE,45,0.0,0.4,79,0.00,,---,0.08,VWS V13.01,2013-08-25 16:01:00,
2013-08-25 12:06:00,81.0,73.8,30.05,East,90,0.0,3.8,79,0.00,,---,0.08,VWS V13.01,2013-08-25 16:06:00,
2013-08-25 12:11:00,81.5,74.4,30.05,ENE,68,0.0,3.8,79,0.00,,---,0.08,VWS V13.01,2013-08-25 16:11:00,
2013-08-25 12:16:00,82.0,74.9,30.05,East,90,0.0,3.8,79,0.00,,---,0.08,VWS V13.01,2013-08-25 16:16:00,
2013-08-25 12:21:00,82.8,74.4,30.05,ENE,68,0.0,3.8,76,0.00,,---,0.08,VWS V13.01,2013-08-25 16:21:00,
2013-08-25 12:26:00,82.9,73.8,30.05,ENE,68,3.8,3.8,74,0.00,,---,0.08,VWS V13.01,2013-08-25 16:26:00,
2013-08-25 12:31:00,83.5,74.3,30.05,ENE,68,0.0,5.4,74,0.00,,---,0.08,VWS V13.01,2013-08-25 16:31:00,
2013-08-25 12:36:00,83.7,74.5,30.05,NE,45,1.3,5.4,74,0.00,,---,0.08,VWS V13.01,2013-08-25 16:36:00,
2013-08-25 12:41:00,83.8,74.7,30.05,East,90,0.0,5.4,74,0.00,,---,0.08,VWS V13.01,2013-08-25 16:41:00,
2013-08-25 12:46:00,84.0,74.8,30.04,East,90,2.0,5.6,74,0.00,,---,0.08,VWS V13.01,2013-08-25 16:46:00,
2013-08-25 12:51:00,83.8,74.7,30.04,ENE,68,1.1,5.6,74,0.00,,---,0.08,VWS V13.01,2013-08-25 16:51:00,
2013-08-25 12:56:00,84.2,75.0,30.04,ESE,112,2.7,5.6,74,0.00,,---,0.08,VWS V13.01,2013-08-25 16:56:00,
2013-08-25 13:01:00,84.6,72.0,30.04,ESE,112,0.0,0.9,66,0.00,,---,0.08,VWS V13.01,2013-08-25 17:01:00,
2013-08-25 13:06:00,84.7,72.1,30.03,NE,45,2.9,4.9,66,0.00,,---,0.08,VWS V13.01,2013-08-25 17:06:00,
2013-08-25 13:11:00,84.6,72.0,30.03,NE,45,5.4,6.5,66,0.00,,---,0.08,VWS V13.01,2013-08-25 17:11:00,
2013-08-25 13:16:00,84.6,72.0,30.02,SSE,158,0.0,9.0,66,0.00,,---,0.08,VWS V13.01,2013-08-25 17:16:00,
2013-08-25 13:21:00,84.7,72.1,30.02,East,90,2.0,9.0,66,0.00,,---,0.08,VWS V13.01,2013-08-25 17:21:00,
2013-08-25 13:26:00,85.3,71.7,30.02,East,90,0.0,9.0,64,0.00,,---,0.08,VWS V13.01,2013-08-25 17:26:00,
2013-08-25 13:31:00,85.6,71.6,30.02,ESE,112,2.7,9.0,63,0.00,,---,0.08,VWS V13.01,2013-08-25 17:31:00,
2013-08-25 13:36:00,85.6,71.1,30.02,ESE,112,0.0,9.0,62,0.00,,---,0.08,VWS V13.01,2013-08-25 17:36:00,
2013-08-25 13:41:00,86.0,71.9,30.02,ESE,112,2.5,9.0,63,0.00,,---,0.08,VWS V13.01,2013-08-25 17:41:00,
2013-08-25 13:46:00,86.0,71.5,30.02,East,90,0.0,9.0,62,0.00,,---,0.08,VWS V13.01,2013-08-25 17:46:00,
2013-08-25 13:51:00,86.0,71.0,30.01,East,90,2.7,9.2,61,0.00,,---,0.08,VWS V13.01,2013-08-25 17:51:00,
2013-08-25 13:56:00,86.2,71.6,30.01,ENE,68,0.0,9.2,62,0.00,,---,0.08,VWS V13.01,2013-08-25 17:56:00,
2013-08-25 14:01:00,86.7,72.2,30.01,ESE,112,0.0,7.2,62,0.00,,---,0.08,VWS V13.01,2013-08-25 18:01:00,
2013-08-25 14:06:00,87.3,71.7,30.00,ENE,68,0.0,7.2,60,0.00,,---,0.08,VWS V13.01,2013-08-25 18:06:00,
2013-08-25 14:11:00,87.4,71.9,30.00,SE,135,1.1,7.2,60,0.00,,---,0.08,VWS V13.01,2013-08-25 18:11:00,
2013-08-25 14:16:00,88.0,71.9,30.00,East,90,4.0,7.4,59,0.00,,---,0.08,VWS V13.01,2013-08-25 18:16:00,
2013-08-25 14:21:00,88.3,71.7,29.99,SE,135,0.2,9.8,58,0.00,,---,0.08,VWS V13.01,2013-08-25 18:21:00,
2013-08-25 14:26:00,88.5,71.3,30.00,East,90,5.4,9.8,57,0.00,,---,0.08,VWS V13.01,2013-08-25 18:26:00,
2013-08-25 14:31:00,88.5,71.3,29.99,SE,135,5.4,9.8,57,0.00,,---,0.08,VWS V13.01,2013-08-25 18:31:00,
2013-08-25 14:36:00,88.5,71.3,29.99,East,90,4.0,9.8,57,0.00,,---,0.08,VWS V13.01,2013-08-25 18:36:00,
2013-08-25 14:41:00,88.9,71.7,29.99,ESE,112,0.0,9.8,57,0.00,,---,0.08,VWS V13.01,2013-08-25 18:41:00,
2013-08-25 14:46:00,88.7,71.5,29.99,ESE,112,3.6,9.8,57,0.00,,---,0.08,VWS V13.01,2013-08-25 18:46:00,
2013-08-25 14:51:00,88.7,71.5,29.99,SSE,158,2.2,9.8,57,0.00,,---,0.08,VWS V13.01,2013-08-25 18:51:00,
2013-08-25 14:56:00,88.7,70.5,29.99,ESE,112,0.4,9.8,55,0.00,,---,0.08,VWS V13.01,2013-08-25 18:56:00,
2013-08-25 15:01:00,88.7,70.5,29.98,SE,135,2.0,3.4,55,0.00,,---,0.08,VWS V13.01,2013-08-25 19:01:00,
2013-08-25 15:06:00,88.3,70.1,29.98,ESE,112,2.0,5.4,55,0.00,,---,0.08,VWS V13.01,2013-08-25 19:06:00,
2013-08-25 15:11:00,88.2,70.0,29.98,ESE,112,0.0,5.4,55,0.00,,---,0.08,VWS V13.01,2013-08-25 19:11:00,
2013-08-25 15:16:00,88.2,69.4,29.98,SE,135,0.0,5.8,54,0.00,,---,0.08,VWS V13.01,2013-08-25 19:16:00,
2013-08-25 15:21:00,88.2,69.4,29.97,SSE,158,0.0,7.6,54,0.00,,---,0.08,VWS V13.01,2013-08-25 19:21:00,
2013-08-25 15:26:00,88.3,69.6,29.97,ESE,112,4.0,9.8,54,0.00,,---,0.08,VWS V13.01,2013-08-25 19:26:00,
2013-08-25 15:31:00,88.2,69.4,29.97,ENE,68,3.8,9.8,54,0.00,,---,0.08,VWS V13.01,2013-08-25 19:31:00,
2013-08-25 15:36:00,88.5,69.8,29.96,ESE,112,7.2,9.8,54,0.00,,---,0.08,VWS V13.01,2013-08-25 19:36:00,
2013-08-25 15:41:00,88.0,69.3,29.96,East,90,3.6,9.8,54,0.00,,---,0.08,VWS V13.01,2013-08-25 19:41:00,
2013-08-25 15:46:00,88.2,69.4,29.96,ENE,68,2.9,9.8,54,0.00,,---,0.08,VWS V13.01,2013-08-25 19:46:00,
2013-08-25 15:51:00,88.0,69.3,29.96,SE,135,2.5,9.8,54,0.00,,---,0.08,VWS V13.01,2013-08-25 19:51:00,
2013-08-25 15:56:00,88.0,69.3,29.96,ENE,68,0.0,9.8,54,0.00,,---,0.08,VWS V13.01,2013-08-25 19:56:00,
2013-08-25 16:01:00,88.2,69.4,29.96,NE,45,5.4,5.4,54,0.00,,---,0.08,VWS V13.01,2013-08-25 20:01:00,
2013-08-25 16:06:00,88.7,69.9,29.96,SE,135,0.0,5.4,54,0.00,,---,0.08,VWS V13.01,2013-08-25 20:06:00,
2013-08-25 16:11:00,88.7,69.9,29.96,SE,135,2.7,5.4,54,0.00,,---,0.08,VWS V13.01,2013-08-25 20:11:00,
2013-08-25 16:16:00,88.5,69.8,29.96,ENE,68,1.6,6.0,54,0.00,,---,0.08,VWS V13.01,2013-08-25 20:16:00,
2013-08-25 16:21:00,88.0,68.2,29.96,ENE,68,0.0,6.0,52,0.00,,---,0.08,VWS V13.01,2013-08-25 20:21:00,
2013-08-25 16:26:00,88.0,68.2,29.96,ENE,68,1.3,6.9,52,0.00,,---,0.08,VWS V13.01,2013-08-25 20:26:00,
2013-08-25 16:31:00,88.0,68.7,29.96,East,90,3.1,6.9,53,0.00,,---,0.08,VWS V13.01,2013-08-25 20:31:00,
2013-08-25 16:36:00,88.0,68.7,29.96,ESE,112,3.4,6.9,53,0.00,,---,0.08,VWS V13.01,2013-08-25 20:36:00,
2013-08-25 16:41:00,88.2,68.9,29.96,ENE,68,0.0,7.2,53,0.00,,---,0.08,VWS V13.01,2013-08-25 20:41:00,
2013-08-25 16:46:00,88.3,69.1,29.96,SE,135,2.5,7.2,53,0.00,,---,0.08,VWS V13.01,2013-08-25 20:46:00,
2013-08-25 16:51:00,89.1,69.7,29.96,ESE,112,2.5,8.5,53,0.00,,---,0.08,VWS V13.01,2013-08-25 20:51:00,
2013-08-25 16:56:00,89.2,69.9,29.96,ESE,112,1.3,8.5,53,0.00,,---,0.08,VWS V13.01,2013-08-25 20:56:00,
2013-08-25 17:01:00,89.1,69.7,29.96,ESE,112,0.0,0.0,53,0.00,,---,0.08,VWS V13.01,2013-08-25 21:01:00,
2013-08-25 17:06:00,88.7,69.4,29.96,ENE,68,3.1,6.0,53,0.00,,---,0.08,VWS V13.01,2013-08-25 21:06:00,
2013-08-25 17:11:00,88.5,69.2,29.96,SE,135,0.0,6.0,53,0.00,,---,0.08,VWS V13.01,2013-08-25 21:11:00,
2013-08-25 17:16:00,88.5,69.2,29.96,East,90,4.3,6.9,53,0.00,,---,0.08,VWS V13.01,2013-08-25 21:16:00,
2013-08-25 17:21:00,88.0,68.7,29.96,SSE,158,4.7,7.2,53,0.00,,---,0.08,VWS V13.01,2013-08-25 21:21:00,
2013-08-25 17:26:00,88.5,69.8,29.96,ENE,68,7.4,8.5,54,0.00,,---,0.08,VWS V13.01,2013-08-25 21:26:00,
2013-08-25 17:31:00,88.2,68.9,29.96,East,90,4.0,8.5,53,0.00,,---,0.08,VWS V13.01,2013-08-25 21:31:00,
2013-08-25 17:36:00,88.0,68.7,29.97,ESE,112,2.0,8.5,53,0.00,,---,0.08,VWS V13.01,2013-08-25 21:36:00,
2013-08-25 17:40:00,88.0,69.3,29.96,East,90,5.6,8.5,54,0.00,,---,0.08,VWS V13.01,2013-08-25 21:40:00,
2013-08-25 17:45:00,87.4,68.8,29.97,SSE,158,0.0,8.5,54,0.00,,---,0.08,VWS V13.01,2013-08-25 21:45:00,
2013-08-25 17:50:00,87.3,68.6,29.97,East,90,5.1,8.5,54,0.00,,---,0.08,VWS V13.01,2013-08-25 21:50:00,
2013-08-25 17:55:00,86.9,68.3,29.97,East,90,4.9,8.5,54,0.00,,---,0.08,VWS V13.01,2013-08-25 21:55:00,
2013-08-25 18:01:00,86.5,67.9,29.97,East,90,2.2,2.9,54,0.00,,---,0.08,VWS V13.01,2013-08-25 22:01:00,
2013-08-25 18:06:00,86.4,67.8,29.97,East,90,5.6,5.6,54,0.00,,---,0.08,VWS V13.01,2013-08-25 22:06:00,
2013-08-25 18:11:00,86.2,67.6,29.97,East,90,3.1,6.3,54,0.00,,---,0.08,VWS V13.01,2013-08-25 22:11:00,
2013-08-25 18:16:00,86.2,67.6,29.97,ESE,112,0.0,7.4,54,0.00,,---,0.08,VWS V13.01,2013-08-25 22:16:00,
2013-08-25 18:21:00,85.8,67.3,29.97,ESE,112,0.0,7.4,54,0.00,,---,0.08,VWS V13.01,2013-08-25 22:21:00,
2013-08-25 18:26:00,85.8,67.3,29.97,ENE,68,5.6,7.4,54,0.00,,---,0.08,VWS V13.01,2013-08-25 22:26:00,
2013-08-25 18:31:00,85.6,67.1,29.97,ENE,68,3.4,7.4,54,0.00,,---,0.08,VWS V13.01,2013-08-25 22:31:00,
2013-08-25 18:36:00,85.6,67.1,29.97,ENE,68,2.2,7.4,54,0.00,,---,0.08,VWS V13.01,2013-08-25 22:36:00,
2013-08-25 18:41:00,85.3,66.8,29.97,ENE,68,4.3,7.4,54,0.00,,---,0.08,VWS V13.01,2013-08-25 22:41:00,
2013-08-25 18:46:00,85.1,66.6,29.97,NE,45,0.0,7.4,54,0.00,,---,0.08,VWS V13.01,2013-08-25 22:46:00,
2013-08-25 18:51:00,84.9,67.5,29.98,East,90,2.7,7.4,56,0.00,,---,0.08,VWS V13.01,2013-08-25 22:51:00,
2013-08-25 18:56:00,84.7,67.3,29.97,SE,135,0.0,7.4,56,0.00,,---,0.08,VWS V13.01,2013-08-25 22:56:00,
2013-08-25 19:01:00,84.7,67.3,29.97,ENE,68,3.4,3.4,56,0.00,,---,0.08,VWS V13.01,2013-08-25 23:01:00,
2013-08-25 19:06:00,84.6,67.2,29.97,ENE,68,1.6,4.7,56,0.00,,---,0.08,VWS V13.01,2013-08-25 23:06:00,
2013-08-25 19:11:00,84.6,67.2,29.97,ESE,112,0.0,4.7,56,0.00,,---,0.08,VWS V13.01,2013-08-25 23:11:00,
2013-08-25 19:16:00,84.6,67.2,29.97,NE,45,3.8,4.7,56,0.00,,---,0.08,VWS V13.01,2013-08-25 23:16:00,
2013-08-25 19:21:00,84.4,67.0,29.97,NE,45,3.4,4.7,56,0.00,,---,0.08,VWS V13.01,2013-08-25 23:21:00,
2013-08-25 19:26:00,84.0,67.7,29.97,ENE,68,0.0,5.1,58,0.00,,---,0.08,VWS V13.01,2013-08-25 23:26:00,
2013-08-25 19:31:00,83.8,67.5,29.98,East,90,1.6,5.1,58,0.00,,---,0.08,VWS V13.01,2013-08-25 23:31:00,
2013-08-25 19:36:00,83.8,67.5,29.98,ENE,68,0.0,5.4,58,0.00,,---,0.08,VWS V13.01,2013-08-25 23:36:00,
2013-08-25 19:41:00,83.7,67.3,29.97,East,90,2.9,5.4,58,0.00,,---,0.08,VWS V13.01,2013-08-25 23:41:00,
2013-08-25 19:46:00,83.7,67.3,29.98,NE,45,0.0,5.4,58,0.00,,---,0.08,VWS V13.01,2013-08-25 23:46:00,
2013-08-25 19:51:00,83.7,67.3,29.98,NE,45,3.4,5.4,58,0.00,,---,0.08,VWS V13.01,2013-08-25 23:51:00,
2013-08-25 19:56:00,83.5,67.2,29.98,NE,45,2.5,5.4,58,0.00,,---,0.08,VWS V13.01,2013-08-25 23:56:00,
2013-08-25 20:01:00,83.5,67.2,29.98,NE,45,1.3,1.3,58,0.00,,---,0.08,VWS V13.01,2013-08-26 00:01:00,
2013-08-25 20:06:00,83.5,67.2,29.99,NE,45,2.9,6.3,58,0.00,,---,0.08,VWS V13.01,2013-08-26 00:06:00,
2013-08-25 20:11:00,83.3,67.0,29.99,NE,45,2.9,6.3,58,0.00,,---,0.08,VWS V13.01,2013-08-26 00:11:00,
2013-08-25 20:16:00,83.3,67.0,29.99,ENE,68,0.0,6.3,58,0.00,,---,0.08,VWS V13.01,2013-08-26 00:16:00,
2013-08-25 20:21:00,83.3,67.0,29.99,ENE,68,2.5,6.3,58,0.00,,---,0.08,VWS V13.01,2013-08-26 00:21:00,
2013-08-25 20:26:00,83.3,67.0,30.00,ENE,68,0.0,6.3,58,0.00,,---,0.08,VWS V13.01,2013-08-26 00:26:00,
2013-08-25 20:31:00,83.1,66.8,30.00,ESE,112,0.0,6.3,58,0.00,,---,0.08,VWS V13.01,2013-08-26 00:31:00,
2013-08-25 20:36:00,83.1,66.8,30.00,East,90,0.0,6.3,58,0.00,,---,0.08,VWS V13.01,2013-08-26 00:36:00,
2013-08-25 20:41:00,83.1,69.7,30.00,East,90,0.0,6.3,64,0.00,,---,0.08,VWS V13.01,2013-08-26 00:41:00,
2013-08-25 20:46:00,83.1,69.7,30.00,ENE,68,2.5,6.3,64,0.00,,---,0.08,VWS V13.01,2013-08-26 00:46:00,
2013-08-25 20:51:00,83.1,69.7,30.00,ENE,68,1.1,6.3,64,0.00,,---,0.08,VWS V13.01,2013-08-26 00:51:00,
2013-08-25 20:56:00,83.1,69.7,30.01,East,90,0.0,6.3,64,0.00,,---,0.08,VWS V13.01,2013-08-26 00:56:00,
2013-08-25 21:01:00,83.1,70.6,30.01,East,90,0.0,0.0,66,0.00,,---,0.08,VWS V13.01,2013-08-26 01:01:00,
2013-08-25 21:06:00,82.8,70.2,30.01,NE,45,1.6,4.0,66,0.00,,---,0.08,VWS V13.01,2013-08-26 01:06:00,
2013-08-25 21:11:00,82.9,70.4,30.00,ENE,68,0.0,4.0,66,0.00,,---,0.08,VWS V13.01,2013-08-26 01:11:00,
2013-08-25 21:16:00,82.8,70.7,30.01,ENE,68,0.0,4.0,67,0.00,,---,0.08,VWS V13.01,2013-08-26 01:16:00,
2013-08-25 21:21:00,82.9,70.9,30.01,ENE,68,0.0,4.0,67,0.00,,---,0.08,VWS V13.01,2013-08-26 01:21:00,
2013-08-25 21:26:00,82.8,70.7,30.01,ENE,68,0.0,4.0,67,0.00,,---,0.08,VWS V13.01,2013-08-26 01:26:00,
2013-08-25 21:31:00,82.8,70.7,30.01,ENE,68,0.0,4.0,67,0.00,,---,0.08,VWS V13.01,2013-08-26 01:31:00,
2013-08-25 21:36:00,82.8,70.7,30.01,ENE,68,0.0,4.0,67,0.00,,---,0.08,VWS V13.01,2013-08-26 01:36:00,
2013-08-25 21:41:00,82.8,70.7,30.01,ENE,68,0.0,4.0,67,0.00,,---,0.08,VWS V13.01,2013-08-26 01:41:00,
2013-08-25 21:46:00,82.8,70.7,30.01,ENE,68,0.0,4.0,67,0.00,,---,0.08,VWS V13.01,2013-08-26 01:46:00,
2013-08-25 21:51:00,82.8,70.7,30.02,ENE,68,0.0,4.0,67,0.00,,---,0.08,VWS V13.01,2013-08-26 01:51:00,
2013-08-25 21:56:00,82.6,70.5,30.02,ENE,68,0.0,4.0,67,0.00,,---,0.08,VWS V13.01,2013-08-26 01:56:00,
2013-08-25 22:01:00,82.6,70.5,30.02,ENE,68,0.0,0.0,67,0.00,,---,0.08,VWS V13.01,2013-08-26 02:01:00,
2013-08-25 22:06:00,82.6,70.5,30.02,ENE,68,0.0,2.5,67,0.00,,---,0.08,VWS V13.01,2013-08-26 02:06:00,
2013-08-25 22:11:00,82.6,70.5,30.02,ENE,68,0.0,2.5,67,0.00,,---,0.08,VWS V13.01,2013-08-26 02:11:00,
2013-08-25 22:16:00,82.6,70.5,30.02,ENE,68,0.0,2.5,67,0.00,,---,0.08,VWS V13.01,2013-08-26 02:16:00,
2013-08-25 22:21:00,82.6,70.5,30.02,ENE,68,0.0,2.5,67,0.00,,---,0.08,VWS V13.01,2013-08-26 02:21:00,
2013-08-25 22:26:00,82.6,70.5,30.02,ENE,68,0.0,2.5,67,0.00,,---,0.08,VWS V13.01,2013-08-26 02:26:00,
2013-08-25 22:31:00,82.4,70.3,30.02,ENE,68,0.0,2.5,67,0.00,,---,0.08,VWS V13.01,2013-08-26 02:31:00,
2013-08-25 22:36:00,82.2,70.2,30.02,ENE,68,0.0,2.5,67,0.00,,---,0.08,VWS V13.01,2013-08-26 02:36:00,
2013-08-25 22:41:00,82.0,70.0,30.02,ENE,68,0.0,2.5,67,0.00,,---,0.08,VWS V13.01,2013-08-26 02:41:00,
2013-08-25 22:46:00,82.2,70.2,30.02,ENE,68,0.0,2.5,67,0.00,,---,0.08,VWS V13.01,2013-08-26 02:46:00,
2013-08-25 22:51:00,82.0,70.0,30.02,ENE,68,0.0,2.5,67,0.00,,---,0.08,VWS V13.01,2013-08-26 02:51:00,
2013-08-25 22:56:00,82.0,70.0,30.02,ENE,68,0.0,2.5,67,0.00,,---,0.08,VWS V13.01,2013-08-26 02:56:00,
2013-08-25 23:01:00,82.0,70.0,30.02,ENE,68,0.0,0.0,67,0.00,,---,0.08,VWS V13.01,2013-08-26 03:01:00,
2013-08-25 23:06:00,82.0,70.0,30.02,ENE,68,0.0,0.0,67,0.00,,---,0.08,VWS V13.01,2013-08-26 03:06:00,
2013-08-25 23:11:00,82.0,70.0,30.02,ENE,68,0.0,0.0,67,0.00,,---,0.08,VWS V13.01,2013-08-26 03:11:00,
2013-08-25 23:16:00,82.0,70.4,30.02,ENE,68,0.0,0.0,68,0.00,,---,0.08,VWS V13.01,2013-08-26 03:16:00,
2013-08-25 23:21:00,81.9,70.3,30.02,ENE,68,0.0,0.0,68,0.00,,---,0.08,VWS V13.01,2013-08-26 03:21:00,
2013-08-25 23:26:00,82.0,70.9,30.02,ENE,68,0.0,0.0,69,0.00,,---,0.08,VWS V13.01,2013-08-26 03:26:00,
2013-08-25 23:31:00,81.9,70.7,30.02,ENE,68,0.0,0.0,69,0.00,,---,0.08,VWS V13.01,2013-08-26 03:31:00,
2013-08-25 23:36:00,81.9,70.7,30.03,ENE,68,0.0,0.0,69,0.00,,---,0.08,VWS V13.01,2013-08-26 03:36:00,
2013-08-25 23:41:00,81.7,70.5,30.03,ENE,68,0.0,0.0,69,0.00,,---,0.08,VWS V13.01,2013-08-26 03:41:00,
2013-08-25 23:46:00,81.7,70.5,30.03,ENE,68,0.0,0.0,69,0.00,,---,0.08,VWS V13.01,2013-08-26 03:46:00,
2013-08-25 23:51:00,81.9,70.7,30.03,ENE,68,0.0,1.8,69,0.00,,---,0.08,VWS V13.01,2013-08-26 03:51:00,
2013-08-25 23:56:00,81.9,70.7,30.03,ENE,68,0.0,1.8,69,0.00,,---,0.08,VWS V13.01,2013-08-26 03:56:00,